M I D A S
Marine Information and Data Acquisition System
Tripno 1229 of the Zeeleeuw from 2007-03-12 08:05:23 to 2007-03-12 13:45:51
Back to CruiseResearch ActivitiesStationsMapUnderway DataData graphs

EquipmentUnitsComment
TimeDGPSUTC
LatitudeDGPSDM.mWGS84
LongitudeDGPSDM.mWGS84
TemperatureSBE03/SBE38deg celciusITS90
ConductivitySBE21S/mITS90
SalinitySBE21 Practical Salinity Units
ChlorophylAChelsea fluorimeterg/lCalibrated in Aceton
Missing or incorrect values are displayed as -999
Sea surface data collected by the RV Zeeleeuw from 2007-03-12 07:47:02 to 2007-03-12 13:55:59
Time Latitude Longitude Temperature Conductivity Salinity ChlorophylA
2007-03-12 07:48:06 51°13.597 2°56.096 18.5729 0.000358 0.01186 -2.871232
2007-03-12 07:49:07 51°13.597 2°56.095 18.549 0.000358 0.011849 -2.871232
2007-03-12 07:50:06 51°13.6 2°56.085 18.4986 0.000358 0.011837 -2.871232
2007-03-12 07:51:07 51°13.617 2°56.016 18.4986 0.000358 0.011824 -2.871232
2007-03-12 07:52:07 51°13.64 2°55.929 18.479 0.000358 0.011814 -2.871232
2007-03-12 07:53:07 51°13.664 2°55.845 18.4444 0.000358 0.011805 -2.871232
2007-03-12 07:54:07 51°13.675 2°55.766 18.3522 0.000358 0.011797 -2.871232
2007-03-12 07:55:06 51°13.685 2°55.762 18.2658 0.000358 0.011789 -2.871232
2007-03-12 07:56:05 51°13.709 2°55.763 18.3499 0.000358 0.011783 -2.871232
2007-03-12 07:57:05 51°13.722 2°55.742 18.1984 0.000358 0.011781 -2.871232
2007-03-12 07:58:03 51°13.792 2°55.674 18.2567 0.000358 0.011777 -2.871232
2007-03-12 07:59:04 51°13.893 2°55.59 18.2516 0.000358 0.011774 -2.871232
2007-03-12 08:00:04 51°14.004 2°55.509 18.2246 0.000358 0.011771 -2.871232
2007-03-12 08:01:04 51°14.115 2°55.427 18.2006 0.000358 0.011769 -2.871232
2007-03-12 08:02:03 51°14.221 2°55.323 18.0878 0.000358 0.011764 -2.871232
2007-03-12 08:03:04 51°14.327 2°55.141 18.1523 0.000358 0.011761 -2.871232
2007-03-12 08:04:04 51°14.425 2°54.89 18.0439 0.000358 0.011757 -2.871232
2007-03-12 08:05:04 51°14.442 2°54.558 9.466 2.812866 18.398368 -2.871232
2007-03-12 08:06:04 51°14.352 2°54.231 9.2107 3.43703 30.109847 -2.871232
2007-03-12 08:07:03 51°14.241 2°53.923 9.1335 3.456502 30.640114 -2.871232
2007-03-12 08:08:04 51°14.129 2°53.604 9.1264 3.532931 31.437598 -2.871232
2007-03-12 08:09:03 51°14.02 2°53.292 9.1346 3.530757 31.4467 -2.871232
2007-03-12 08:10:04 51°13.909 2°52.968 9.1036 3.519882 31.367237 -2.871232
2007-03-12 08:11:04 51°13.798 2°52.65 9.0894 3.528893 31.476316 -2.871232
2007-03-12 08:12:04 51°13.688 2°52.33 9.0771 3.499791 31.208803 -2.871232
2007-03-12 08:13:04 51°13.578 2°52.01 9.0706 3.52879 31.517668 -2.871232
2007-03-12 08:14:04 51°13.47 2°51.689 9.0774 3.507145 31.30886 -2.871232
2007-03-12 08:15:04 51°13.361 2°51.371 9.0799 3.527029 31.510188 -2.871232
2007-03-12 08:16:04 51°13.252 2°51.051 9.0759 3.516983 31.410541 -2.871232
2007-03-12 08:17:04 51°13.144 2°50.73 9.0798 3.527133 31.514544 -2.871232
2007-03-12 08:18:03 51°13.038 2°50.412 9.0683 3.533451 31.58141 -2.871232
2007-03-12 08:19:04 51°12.929 2°50.084 9.0544 3.541012 31.664838 -2.871232
2007-03-12 08:20:03 51°12.823 2°49.769 9.0552 3.533658 31.607681 -2.871232
2007-03-12 08:21:03 51°12.712 2°49.448 9.0565 3.541944 31.690845 -2.871232
2007-03-12 08:22:04 51°12.599 2°49.122 9.068 3.543705 31.702477 -2.871232
2007-03-12 08:23:04 51°12.488 2°48.8 9.0703 3.519676 31.459678 -2.871232
2007-03-12 08:24:04 51°12.376 2°48.478 9.0726 3.541322 31.670435 -2.871232
2007-03-12 08:25:03 51°12.266 2°48.162 9.0779 3.54878 31.747039 -2.871232
2007-03-12 08:26:04 51°12.153 2°47.834 9.082 3.522162 31.477694 -2.871232
2007-03-12 08:27:04 51°12.042 2°47.511 9.0701 3.551576 31.769792 -2.871232
2007-03-12 08:28:04 51°11.94 2°47.181 9.0742 3.560173 31.86197 -2.871232
2007-03-12 08:29:03 51°11.868 2°46.836 9.0737 3.559034 31.8498 -2.871232
2007-03-12 08:30:04 51°11.797 2°46.477 9.065 3.563177 31.896896 -2.871232
2007-03-12 08:31:04 51°11.719 2°46.131 9.0672 3.553234 31.803069 -2.871232
2007-03-12 08:32:03 51°11.641 2°45.791 9.1185 3.562038 31.877137 -2.871232
2007-03-12 08:33:04 51°11.561 2°45.439 9.1068 3.567423 31.891079 -2.871232
2007-03-12 08:34:03 51°11.487 2°45.095 9.12 3.564212 31.85919 -2.871232
2007-03-12 08:35:03 51°11.419 2°44.741 9.1386 3.569495 31.901551 -2.871232
2007-03-12 08:36:03 51°11.352 2°44.386 9.1394 3.57343 31.931371 -2.871232
2007-03-12 08:37:03 51°11.283 2°44.032 9.1444 3.569598 31.889116 -2.871232
2007-03-12 08:38:03 51°11.232 2°43.67 9.1864 3.583581 32.033871 -2.871232
2007-03-12 08:39:03 51°11.205 2°43.331 9.1889 3.580577 31.951771 -2.871232
2007-03-12 08:40:03 51°11.179 2°43.055 9.1706 3.585239 32.035122 -2.871232
2007-03-12 08:41:03 51°11.173 2°42.78 9.1436 3.580888 32.006275 -2.871232
2007-03-12 08:42:03 51°11.154 2°42.553 9.1382 3.576952 31.975619 -2.871232
2007-03-12 08:43:03 51°11.132 2°42.391 9.1374 3.585343 32.064899 -2.871232
2007-03-12 08:44:03 51°11.115 2°42.225 9.1345 3.587414 32.081256 -2.871232
2007-03-12 08:45:03 51°11.096 2°42.105 9.1454 3.588761 32.102265 -2.871232
2007-03-12 08:46:03 51°11.089 2°42.057 9.1365 3.582856 32.03512 -2.871232
2007-03-12 08:47:03 51°11.092 2°42.033 9.1352 3.594251 32.146665 -2.871232
2007-03-12 08:48:03 51°11.096 2°42.01 9.1295 3.592904 32.134976 -2.871232
2007-03-12 08:49:03 51°11.1 2°41.988 9.1381 3.586482 32.071145 -2.871232
2007-03-12 08:50:03 51°11.105 2°41.968 9.1282 3.594872 32.157087 -2.871232
2007-03-12 08:51:03 51°11.11 2°41.95 9.1371 3.597773 32.188474 -2.871232
2007-03-12 08:52:03 51°11.115 2°41.933 9.1478 3.595183 32.159328 -2.871232
2007-03-12 08:53:03 51°11.12 2°41.916 9.1352 3.595079 32.157449 -2.871232
2007-03-12 08:54:03 51°11.126 2°41.901 9.1503 3.592801 32.139035 -2.871232
2007-03-12 08:55:03 51°11.118 2°41.834 9.1411 3.59539 32.156295 -2.871232
2007-03-12 08:56:03 51°11.059 2°41.617 9.1345 3.599844 32.200576 -2.871232
2007-03-12 08:57:03 51°10.969 2°41.304 9.161 3.583064 32.036333 -2.871232
2007-03-12 08:58:03 51°10.897 2°40.959 9.1679 3.602434 32.202531 -2.871232
2007-03-12 08:59:03 51°10.839 2°40.605 9.1734 3.61331 32.312334 -2.871232
2007-03-12 09:00:03 51°10.781 2°40.251 9.2007 3.606991 32.240172 -2.871232
2007-03-12 09:01:03 51°10.724 2°39.897 9.193 3.607716 32.228685 -2.871232
2007-03-12 09:02:03 51°10.667 2°39.542 9.208 3.61186 32.269835 -2.871232
2007-03-12 09:03:03 51°10.611 2°39.188 9.2083 3.612481 32.271756 -2.871232
2007-03-12 09:04:03 51°10.554 2°38.833 9.2192 3.605644 32.201326 -2.871232
2007-03-12 09:05:03 51°10.51 2°38.473 9.2119 3.614035 32.278685 -2.871232
2007-03-12 09:06:03 51°10.469 2°38.112 9.214 3.607405 32.207779 -2.871232
2007-03-12 09:07:03 51°10.426 2°37.749 9.2152 3.615382 32.288654 -2.871232
2007-03-12 09:08:03 51°10.398 2°37.383 9.2218 3.624705 32.376975 -2.871232
2007-03-12 09:09:03 51°10.398 2°37.017 9.2367 3.623669 32.375212 -2.871232
2007-03-12 09:10:03 51°10.509 2°36.71 9.1925 3.620872 32.341468 -2.871232
2007-03-12 09:11:03 51°10.703 2°36.552 9.2047 3.624498 32.391123 -2.871232
2007-03-12 09:12:03 51°10.921 2°36.623 9.1692 3.630817 32.453919 -2.871232
2007-03-12 09:13:03 51°11.136 2°36.716 9.162 3.629885 32.475455 -2.871232
2007-03-12 09:14:03 51°11.352 2°36.807 9.1538 3.631439 32.505487 -2.871232
2007-03-12 09:15:03 51°11.568 2°36.902 9.1537 3.627399 32.464422 -2.871232
2007-03-12 09:16:03 51°11.785 2°36.986 9.2231 3.632786 32.508599 -2.871232
2007-03-12 09:17:03 51°12.002 2°37.059 9.2715 3.649257 32.591755 -2.871232
2007-03-12 09:18:03 51°12.221 2°37.124 9.2661 3.654954 32.626898 -2.871232
2007-03-12 09:19:03 51°12.444 2°37.179 9.2512 3.643144 32.519074 -2.871232
2007-03-12 09:20:03 51°12.668 2°37.217 9.161 3.648324 32.603939 -2.871232
2007-03-12 09:21:03 51°12.891 2°37.253 9.1422 3.651123 32.704935 -2.871232
2007-03-12 09:22:03 51°13.113 2°37.27 9.1178 3.64356 32.639938 -2.871232
2007-03-12 09:23:03 51°13.337 2°37.265 9.1256 3.635791 32.576303 -2.871232
2007-03-12 09:24:03 51°13.56 2°37.245 9.1254 3.640867 32.632919 -2.871232
2007-03-12 09:25:03 51°13.794 2°37.182 9.1454 3.642421 32.644097 -2.871232
2007-03-12 09:26:03 51°14.022 2°37.126 9.1438 3.643042 32.634778 -2.871232
2007-03-12 09:27:03 51°14.247 2°37.071 9.1418 3.639727 32.59315 -2.871232
2007-03-12 09:28:03 51°14.472 2°37.018 9.127 3.644803 32.662671 -2.871232
2007-03-12 09:29:03 51°14.697 2°36.97 9.1269 3.635687 32.56925 -2.871232
2007-03-12 09:30:03 51°14.923 2°36.917 9.1116 3.651227 32.734475 -2.871232
2007-03-12 09:31:03 51°15.153 2°36.867 9.1092 3.659929 32.825604 -2.871232
2007-03-12 09:32:03 51°15.377 2°36.798 9.098 3.655785 32.800729 -2.871232
2007-03-12 09:33:03 51°15.601 2°36.731 9.0793 3.651434 32.765969 -2.871232
2007-03-12 09:34:03 51°15.827 2°36.668 9.0964 3.655682 32.811837 -2.871232
2007-03-12 09:35:03 51°16.051 2°36.608 9.1065 3.652263 32.763846 -2.871232
2007-03-12 09:36:03 51°16.248 2°36.55 9.1118 3.657132 32.802899 -2.871232
2007-03-12 09:37:03 51°16.384 2°36.518 9.1167 3.663244 32.862155 -2.871232
2007-03-12 09:38:03 51°16.476 2°36.612 9.1381 3.663658 32.846329 -2.871232
2007-03-12 09:39:03 51°16.566 2°36.719 9.1659 3.670703 32.905306 -2.871232
2007-03-12 09:40:03 51°16.595 2°36.805 9.1498 3.665316 32.828189 -2.871232
2007-03-12 09:41:03 51°16.597 2°36.825 9.1505 3.668735 32.878733 -2.871232
2007-03-12 09:42:03 51°16.595 2°36.837 9.1461 3.667802 32.871172 -2.871232
2007-03-12 09:43:03 51°16.596 2°36.843 9.1478 3.667699 32.874477 -2.871232
2007-03-12 09:44:03 51°16.596 2°36.845 9.138 3.657649 32.77862 -2.871232
2007-03-12 09:45:03 51°16.598 2°36.842 9.1446 3.664383 32.844889 -2.871232
2007-03-12 09:46:03 51°16.6 2°36.837 9.1409 3.680338 33.002288 -2.871232
2007-03-12 09:47:03 51°16.603 2°36.832 9.1529 3.680338 32.998804 -2.871232
2007-03-12 09:48:03 51°16.606 2°36.825 9.143 3.680442 33.003322 -2.871232
2007-03-12 09:49:03 51°16.613 2°36.818 9.141 3.680753 33.004681 -2.871232
2007-03-12 09:50:03 51°16.619 2°36.807 9.1393 3.680856 33.004843 -2.871232
2007-03-12 09:51:03 51°16.624 2°36.812 9.1469 3.681064 33.00691 -2.871232
2007-03-12 09:52:03 51°16.681 2°36.869 9.1449 3.681167 33.010558 -2.871232
2007-03-12 09:53:03 51°16.821 2°37.024 9.155 3.681478 33.002334 -2.871232
2007-03-12 09:54:03 51°16.993 2°37.241 9.1437 3.680856 33.000488 -2.871232
2007-03-12 09:55:03 51°17.171 2°37.457 9.1759 3.681271 32.995042 -2.871232
2007-03-12 09:56:03 51°17.349 2°37.675 9.1744 3.682514 32.998735 -2.871232
2007-03-12 09:57:03 51°17.534 2°37.876 9.1795 3.682825 32.997482 -2.871232
2007-03-12 09:58:03 51°17.723 2°38.075 9.1755 3.683653 33.000523 -2.871232
2007-03-12 09:59:03 51°17.913 2°38.266 9.1891 3.684068 33.005524 -2.871232
2007-03-12 10:00:03 51°18.106 2°38.458 9.1918 3.685415 33.013728 -2.871232
2007-03-12 10:01:03 51°18.302 2°38.643 9.1982 3.687072 33.018934 -2.871232
2007-03-12 10:02:03 51°18.508 2°38.801 9.2145 3.686761 33.015836 -2.871232
2007-03-12 10:03:03 51°18.716 2°38.952 9.2369 3.690802 33.033467 -2.871232
2007-03-12 10:04:03 51°18.924 2°39.101 9.2409 3.69277 33.03741 -2.871232
2007-03-12 10:05:03 51°19.143 2°39.212 9.2553 3.694117 33.040382 -2.871232
2007-03-12 10:06:03 51°19.361 2°39.317 9.2511 3.696292 33.049862 -2.871232
2007-03-12 10:07:03 51°19.579 2°39.422 9.2441 3.69536 33.051887 -2.871232
2007-03-12 10:08:03 51°19.798 2°39.529 9.2432 3.694324 33.041575 -2.871232
2007-03-12 10:09:03 51°20.017 2°39.635 9.2427 3.694221 33.044892 -2.871232
2007-03-12 10:10:03 51°20.237 2°39.743 9.242 3.695567 33.05221 -2.871232
2007-03-12 10:11:03 51°20.456 2°39.852 9.2455 3.695671 33.054111 -2.871232
2007-03-12 10:12:03 51°20.675 2°39.965 9.2429 3.695982 33.063295 -2.871232
2007-03-12 10:13:03 51°20.893 2°40.074 9.2472 3.696085 33.061716 -2.871232
2007-03-12 10:14:04 51°21.114 2°40.184 9.2454 3.696189 33.060137 -2.871232
2007-03-12 10:15:03 51°21.328 2°40.29 9.2384 3.696604 33.070355 -2.871232
2007-03-12 10:16:03 51°21.539 2°40.423 9.2213 3.696396 33.077869 -2.871232
2007-03-12 10:17:03 51°21.746 2°40.565 9.22 3.6965 33.084999 -2.871232
2007-03-12 10:18:03 51°21.948 2°40.722 9.1943 3.695257 33.091788 -2.871232
2007-03-12 10:19:03 51°22.145 2°40.898 9.1864 3.69391 33.088828 -2.871232
2007-03-12 10:20:03 51°22.333 2°41.094 9.1734 3.6936 33.097072 -2.871232
2007-03-12 10:21:03 51°22.513 2°41.31 9.1947 3.694325 33.102558 -2.871232
2007-03-12 10:22:03 51°22.675 2°41.56 9.1878 3.695983 33.112977 -2.871232
2007-03-12 10:23:03 51°22.807 2°41.847 9.1871 3.697537 33.124106 -2.871232
2007-03-12 10:24:03 51°22.93 2°42.145 9.1913 3.699091 33.147465 -2.871232
2007-03-12 10:25:03 51°23.056 2°42.442 9.1902 3.701163 33.162885 -2.871232
2007-03-12 10:26:03 51°23.182 2°42.736 9.2003 3.702613 33.172977 -2.871232
2007-03-12 10:27:03 51°23.331 2°43.003 9.1996 3.705722 33.202223 -2.871232
2007-03-12 10:28:03 51°23.485 2°43.258 9.1956 3.710177 33.243151 -2.871232
2007-03-12 10:29:03 51°23.64 2°43.511 9.2042 3.714114 33.284175 -2.871232
2007-03-12 10:30:03 51°23.794 2°43.764 9.1872 3.716083 33.304691 -2.871232
2007-03-12 10:31:03 51°23.938 2°44.03 9.1875 3.715461 33.304634 -2.871232
2007-03-12 10:32:04 51°24.073 2°44.318 9.1775 3.7137 33.295837 -2.871232
2007-03-12 10:33:03 51°24.199 2°44.6 9.1701 3.712353 33.289418 -2.871232
2007-03-12 10:34:03 51°24.325 2°44.888 9.1687 3.710488 33.272558 -2.871232
2007-03-12 10:35:03 51°24.45 2°45.174 9.1618 3.708623 33.26184 -2.871232
2007-03-12 10:36:03 51°24.578 2°45.462 9.1684 3.70738 33.251183 -2.871232
2007-03-12 10:37:03 51°24.708 2°45.747 9.1741 3.706447 33.23486 -2.871232
2007-03-12 10:38:03 51°24.835 2°46.037 9.1598 3.705308 33.223485 -2.871232
2007-03-12 10:39:04 51°24.967 2°46.332 9.1551 3.703546 33.216422 -2.871232
2007-03-12 10:40:03 51°25.095 2°46.617 9.1529 3.702614 33.213249 -2.871232
2007-03-12 10:41:03 51°25.229 2°46.897 9.1521 3.702718 33.214284 -2.871232
2007-03-12 10:42:03 51°25.395 2°47.135 9.1603 3.703961 33.224943 -2.871232
2007-03-12 10:43:03 51°25.562 2°47.37 9.1543 3.70624 33.245946 -2.871232
2007-03-12 10:44:03 51°25.728 2°47.607 9.1478 3.70738 33.260837 -2.871232
2007-03-12 10:45:03 51°25.894 2°47.845 9.1579 3.707587 33.266418 -2.871232
2007-03-12 10:46:03 51°26.002 2°48.031 9.1487 3.708727 33.274287 -2.871232
2007-03-12 10:47:03 51°26.009 2°48.173 9.1545 3.709038 33.279148 -2.871232
2007-03-12 10:48:03 51°26.012 2°48.269 9.1575 3.70966 33.280086 -2.871232
2007-03-12 10:49:03 51°26.025 2°48.368 9.1631 3.70997 33.279677 -2.871232
2007-03-12 10:50:03 51°26.021 2°48.463 9.1523 3.709867 33.279521 -2.871232
2007-03-12 10:51:03 51°26.012 2°48.501 9.1595 3.709349 33.276982 -2.871232
2007-03-12 10:52:03 51°26.005 2°48.508 9.1564 3.709038 33.272122 -2.871232
2007-03-12 10:53:03 51°25.999 2°48.51 9.164 3.709349 33.275226 -2.871232
2007-03-12 10:54:03 51°25.993 2°48.51 9.1704 3.709763 33.27234 -2.871232
2007-03-12 10:55:04 51°25.988 2°48.507 9.1713 3.710177 33.271211 -2.871232
2007-03-12 10:56:03 51°25.984 2°48.503 9.1674 3.709659 33.26955 -2.871232
2007-03-12 10:57:03 51°25.98 2°48.498 9.17 3.709141 33.26789 -2.871232
2007-03-12 10:58:03 51°25.977 2°48.491 9.1766 3.709659 33.266918 -2.871232
2007-03-12 10:59:03 51°25.974 2°48.484 9.1734 3.70997 33.268265 -2.871232
2007-03-12 11:00:03 51°25.965 2°48.484 9.1755 3.709867 33.266353 -2.871232
2007-03-12 11:01:03 51°25.93 2°48.563 9.1777 3.70997 33.265633 -2.871232
2007-03-12 11:02:03 51°25.896 2°48.78 9.1682 3.709763 33.26181 -2.871232
2007-03-12 11:03:03 51°25.824 2°49.079 9.1514 3.708623 33.26184 -2.871232
2007-03-12 11:04:03 51°25.75 2°49.402 9.1575 3.706655 33.254472 -2.871232
2007-03-12 11:05:03 51°25.668 2°49.72 9.1507 3.698573 33.167659 -2.871232
2007-03-12 11:06:03 51°25.584 2°50.038 9.1479 3.691113 33.101955 -2.871232
2007-03-12 11:07:03 51°25.499 2°50.355 9.1123 3.685312 33.056275 -2.871232
2007-03-12 11:08:03 51°25.413 2°50.671 9.0806 3.681375 33.039665 -2.871232
2007-03-12 11:09:03 51°25.331 2°50.989 9.0849 3.677127 33.033908 -2.871232
2007-03-12 11:10:03 51°25.244 2°51.306 9.0451 3.657857 32.838769 -2.871232
2007-03-12 11:11:03 51°25.164 2°51.627 9.0267 3.655061 32.857765 -2.871232
2007-03-12 11:12:03 51°25.093 2°51.95 9.0135 3.646255 32.768858 -2.871232
2007-03-12 11:13:04 51°25.031 2°52.286 9.074 3.644701 32.753326 -2.871232
2007-03-12 11:14:03 51°24.975 2°52.614 9.0392 3.647808 32.745366 -2.871232
2007-03-12 11:15:03 51°24.918 2°52.948 9.0322 3.641593 32.719666 -2.871232
2007-03-12 11:16:03 51°24.86 2°53.281 9.0116 3.637656 32.667355 -2.871232
2007-03-12 11:17:03 51°24.816 2°53.617 8.9961 3.630819 32.630177 -2.871232
2007-03-12 11:18:04 51°24.773 2°53.961 9.04 3.624915 32.583261 -2.871232
2007-03-12 11:19:03 51°24.732 2°54.289 8.995 3.621392 32.517895 -2.871232
2007-03-12 11:20:04 51°24.685 2°54.626 8.9564 3.61383 32.466479 -2.871232
2007-03-12 11:21:03 51°24.64 2°54.954 8.9906 3.608133 32.437947 -2.871232
2007-03-12 11:22:04 51°24.594 2°55.293 8.9872 3.603368 32.368008 -2.871232
2007-03-12 11:23:03 51°24.55 2°55.62 8.9472 3.591974 32.277355 -2.871232
2007-03-12 11:24:03 51°24.513 2°55.956 8.9779 3.585966 32.250717 -2.871232
2007-03-12 11:25:03 51°24.483 2°56.295 8.9556 3.586691 32.235712 -2.871232
2007-03-12 11:26:03 51°24.453 2°56.63 8.9856 3.583894 32.202652 -2.871232
2007-03-12 11:27:03 51°24.421 2°56.969 8.926 3.578715 32.149233 -2.871232
2007-03-12 11:28:03 51°24.39 2°57.307 8.9177 3.568047 32.089563 -2.871232
2007-03-12 11:29:04 51°24.358 2°57.652 8.8673 3.559243 32.0101 -2.871232
2007-03-12 11:30:03 51°24.328 2°57.984 8.8719 3.546607 31.895736 -2.871232
2007-03-12 11:31:04 51°24.296 2°58.328 8.8204 3.531797 31.803608 -2.871232
2007-03-12 11:32:03 51°24.267 2°58.662 8.9237 3.526929 31.725363 -2.871232
2007-03-12 11:33:04 51°24.238 2°59.005 8.8792 3.525064 31.659582 -2.871232
2007-03-12 11:34:03 51°24.207 2°59.336 8.8266 3.508804 31.545211 -2.871232
2007-03-12 11:35:03 51°24.178 2°59.676 8.8358 3.49907 31.482386 -2.871232
2007-03-12 11:36:04 51°24.148 3°0.021 8.8083 3.492338 31.416827 -2.871232
2007-03-12 11:37:03 51°24.116 3°0.353 8.8231 3.482708 31.348211 -2.871232
2007-03-12 11:38:04 51°24.087 3°0.696 8.8947 3.488299 31.352285 -2.871232
2007-03-12 11:39:03 51°24.06 3°1.026 8.8972 3.486745 31.25115 -2.871232
2007-03-12 11:40:04 51°24.031 3°1.366 8.8241 3.466966 31.139544 -2.871232
2007-03-12 11:41:03 51°24.002 3°1.693 8.8654 3.463756 31.129081 -2.871232
2007-03-12 11:42:04 51°23.973 3°2.032 8.8807 3.460752 31.042936 -2.871232
2007-03-12 11:43:03 51°23.934 3°2.354 8.8483 3.45485 30.980075 -2.871232
2007-03-12 11:44:03 51°23.892 3°2.682 8.9022 3.451744 30.976326 -2.871232
2007-03-12 11:45:03 51°23.85 3°3.008 8.9458 3.447601 30.900576 -2.871232
2007-03-12 11:46:03 51°23.807 3°3.339 9.0334 3.445633 30.791874 -2.871232
2007-03-12 11:47:04 51°23.763 3°3.675 8.9298 3.432171 30.645472 -2.871232
2007-03-12 11:48:03 51°23.724 3°3.999 8.8895 3.42275 30.675582 -2.871232
2007-03-12 11:49:04 51°23.68 3°4.33 8.8726 3.387856 30.271079 -2.871232
2007-03-12 11:50:03 51°23.638 3°4.652 8.7182 3.355037 30.061808 -2.871232
2007-03-12 11:51:04 51°23.594 3°4.986 8.6838 3.354935 30.147476 -2.871232
2007-03-12 11:52:03 51°23.553 3°5.307 8.7112 3.359698 30.230434 -2.871232
2007-03-12 11:53:04 51°23.52 3°5.637 8.6715 3.360629 30.192902 -2.871232
2007-03-12 11:54:04 51°23.534 3°5.965 8.6846 3.375538 30.36654 -2.871232
2007-03-12 11:55:03 51°23.547 3°6.289 8.689 3.364046 30.278661 -2.871232
2007-03-12 11:56:04 51°23.553 3°6.626 8.6354 3.359801 30.228233 -2.871232
2007-03-12 11:57:03 51°23.545 3°6.952 8.6572 3.35711 30.236964 -2.871232
2007-03-12 11:58:04 51°23.524 3°7.288 8.639 3.350588 30.16379 -2.871232
2007-03-12 11:59:03 51°23.495 3°7.611 8.658 3.342202 30.084167 -2.871232
2007-03-12 12:00:04 51°23.463 3°7.946 8.7288 3.334748 29.984152 -2.871232
2007-03-12 12:01:04 51°23.422 3°8.267 8.8167 3.333608 29.875357 -2.871232
2007-03-12 12:02:04 51°23.385 3°8.478 8.7753 3.324601 29.770081 -2.871232
2007-03-12 12:03:04 51°23.362 3°8.622 8.7775 3.327603 29.822898 -2.871232
2007-03-12 12:04:03 51°23.322 3°8.752 8.8091 3.330502 29.844521 -2.871232
2007-03-12 12:05:04 51°23.25 3°8.892 8.8156 3.330812 29.83409 -2.871232
2007-03-12 12:06:03 51°23.164 3°9.021 8.8682 3.329984 29.798094 -2.871232
2007-03-12 12:07:04 51°23.081 3°9.154 8.8486 3.335056 29.807147 -2.871232
2007-03-12 12:08:04 51°23.015 3°9.253 8.7792 3.321288 29.754655 -2.871232
2007-03-12 12:09:04 51°22.955 3°9.34 8.6952 3.301827 29.578146 -2.871232
2007-03-12 12:10:04 51°22.882 3°9.462 8.7047 3.29541 29.568878 -2.871232
2007-03-12 12:11:04 51°22.775 3°9.676 8.8067 3.289613 29.4971 -2.871232
2007-03-12 12:12:04 51°22.728 3°9.992 8.8095 3.283608 29.349739 -2.871232
2007-03-12 12:13:03 51°22.716 3°10.32 8.8867 3.293958 29.370917 -2.871232
2007-03-12 12:14:04 51°22.7 3°10.658 8.951 3.285574 29.300584 -2.871232
2007-03-12 12:15:03 51°22.686 3°10.985 8.9896 3.27605 29.166306 -2.871232
2007-03-12 12:16:04 51°22.669 3°11.324 8.915 3.27222 29.107726 -2.871232
2007-03-12 12:17:04 51°22.653 3°11.658 8.7975 3.261766 29.080293 -2.871232
2007-03-12 12:18:03 51°22.643 3°11.987 8.7925 3.251727 29.056867 -2.871232
2007-03-12 12:19:04 51°22.63 3°12.328 8.7968 3.249036 29.031025 -2.871232
2007-03-12 12:20:03 51°22.619 3°12.597 8.7725 3.247277 29.012079 -2.871232
2007-03-12 12:21:04 51°22.609 3°12.806 8.7862 3.241584 28.971999 -2.871232
2007-03-12 12:22:03 51°22.6 3°12.995 8.798 3.24148 28.954773 -2.871232
2007-03-12 12:23:04 51°22.592 3°13.164 8.7687 3.238893 28.936901 -2.871232
2007-03-12 12:24:03 51°22.596 3°13.227 8.9601 3.236719 28.910791 -2.871232
2007-03-12 12:25:04 51°22.606 3°13.234 9.006 3.250173 28.899142 -2.871232
2007-03-12 12:26:04 51°22.617 3°13.231 9.0046 3.254002 28.896256 -2.871232
2007-03-12 12:27:04 51°22.626 3°13.224 8.9477 3.252036 28.89757 -2.871232
2007-03-12 12:28:04 51°22.634 3°13.214 8.906 3.248413 28.894842 -2.871232
2007-03-12 12:29:03 51°22.64 3°13.203 8.8876 3.24386 28.889069 -2.871232
2007-03-12 12:30:04 51°22.648 3°13.19 8.8832 3.241479 28.887079 -2.871232
2007-03-12 12:31:03 51°22.654 3°13.176 8.8709 3.240031 28.884298 -2.871232
2007-03-12 12:32:04 51°22.66 3°13.161 8.9486 3.241479 28.880941 -2.871232
2007-03-12 12:33:04 51°22.692 3°13.123 9.0008 3.247482 28.865013 -2.871232
2007-03-12 12:34:04 51°22.708 3°12.942 8.9406 3.248206 28.87673 -2.871232
2007-03-12 12:35:04 51°22.69 3°12.605 8.8185 3.245102 28.900544 -2.871232
2007-03-12 12:36:04 51°22.623 3°12.236 8.7374 3.238479 28.922792 -2.871232
2007-03-12 12:37:04 51°22.566 3°11.858 8.7988 3.238583 28.952341 -2.871232
2007-03-12 12:38:04 51°22.53 3°11.471 8.9668 3.250795 28.971272 -2.871232
2007-03-12 12:39:04 51°22.488 3°11.087 8.8964 3.26011 29.010015 -2.871232
2007-03-12 12:40:04 51°22.417 3°10.715 8.919 3.259179 29.040102 -2.871232
2007-03-12 12:41:04 51°22.32 3°10.361 8.9006 3.263526 29.085299 -2.871232
2007-03-12 12:42:04 51°22.218 3°10.009 8.7467 3.267874 29.151411 -2.871232
2007-03-12 12:43:04 51°22.116 3°9.653 8.6896 3.269117 29.241384 -2.871232
2007-03-12 12:44:04 51°22.015 3°9.294 8.7118 3.268497 29.304735 -2.871232
2007-03-12 12:45:04 51°21.926 3°8.928 8.6892 3.274396 29.343711 -2.871232
2007-03-12 12:46:04 51°21.839 3°8.561 8.6976 3.280814 29.427822 -2.871232
2007-03-12 12:47:04 51°21.73 3°8.21 8.671 3.29013 29.50933 -2.871232
2007-03-12 12:48:04 51°21.621 3°7.859 8.659 3.299758 29.628706 -2.871232
2007-03-12 12:49:04 51°21.515 3°7.507 8.6608 3.31011 29.752351 -2.871232
2007-03-12 12:50:04 51°21.431 3°7.143 8.6834 3.3216 29.850016 -2.871232
2007-03-12 12:51:04 51°21.343 3°6.781 8.7107 3.329882 29.917285 -2.871232
2007-03-12 12:52:04 51°21.256 3°6.419 8.6964 3.335161 29.960239 -2.871232
2007-03-12 12:53:04 51°21.175 3°6.056 8.6747 3.339406 30.000888 -2.871232
2007-03-12 12:54:04 51°21.083 3°5.7 8.6985 3.344065 30.07378 -2.871232
2007-03-12 12:55:04 51°21.006 3°5.337 8.663 3.352451 30.142858 -2.871232
2007-03-12 12:56:04 51°20.912 3°4.987 8.7006 3.357006 30.204398 -2.871232
2007-03-12 12:57:04 51°20.821 3°4.64 8.7116 3.361561 30.233659 -2.871232
2007-03-12 12:58:04 51°20.744 3°4.285 8.7105 3.363632 30.232486 -2.871232
2007-03-12 12:59:04 51°20.665 3°3.93 8.7135 3.362907 30.230918 -2.871232
2007-03-12 13:00:04 51°20.568 3°3.584 8.7264 3.363942 30.233158 -2.871232
2007-03-12 13:01:03 51°20.491 3°3.234 8.7615 3.367462 30.244806 -2.871232
2007-03-12 13:02:04 51°20.437 3°2.862 8.779 3.370361 30.254293 -2.871232
2007-03-12 13:03:03 51°20.356 3°2.515 8.7306 3.37181 30.253389 -2.871232
2007-03-12 13:04:04 51°20.294 3°2.146 8.6201 3.358662 30.213646 -2.871232
2007-03-12 13:05:04 51°20.215 3°1.791 8.6207 3.35152 30.186011 -2.871232
2007-03-12 13:06:04 51°20.152 3°1.427 8.6365 3.350381 30.184342 -2.871232
2007-03-12 13:07:04 51°20.065 3°1.075 8.6603 3.351623 30.154752 -2.871232
2007-03-12 13:08:04 51°19.98 3°0.722 8.7004 3.354211 30.174912 -2.871232
2007-03-12 13:09:04 51°19.902 3°0.367 8.7301 3.356902 30.175125 -2.871232
2007-03-12 13:10:04 51°19.826 3°0.012 8.6906 3.357937 30.162879 -2.871232
2007-03-12 13:11:04 51°19.751 2°59.652 8.6819 3.353589 30.158236 -2.871232
2007-03-12 13:12:04 51°19.691 2°59.282 8.653 3.353797 30.165943 -2.871232
2007-03-12 13:13:04 51°19.617 2°58.916 8.6493 3.355453 30.216385 -2.871232
2007-03-12 13:14:04 51°19.549 2°58.544 8.6331 3.359387 30.243511 -2.871232
2007-03-12 13:15:04 51°19.465 2°58.177 8.6367 3.359491 30.253447 -2.871232
2007-03-12 13:16:04 51°19.392 2°57.803 8.6533 3.366221 30.328743 -2.871232
2007-03-12 13:17:04 51°19.317 2°57.428 8.6467 3.370879 30.343596 -2.871232
2007-03-12 13:18:04 51°19.218 2°57.066 8.736 3.372122 30.364114 -2.871232
2007-03-12 13:19:04 51°19.109 2°56.71 8.7156 3.375538 30.347079 -2.871232
2007-03-12 13:20:04 51°18.98 2°56.369 8.68 3.376987 30.359093 -2.871232
2007-03-12 13:21:04 51°18.838 2°56.041 8.6516 3.380301 30.440885 -2.871232
2007-03-12 13:22:04 51°18.686 2°55.722 8.6735 3.386617 30.511293 -2.871232
2007-03-12 13:23:04 51°18.534 2°55.406 8.7484 3.402872 30.653224 -2.871232
2007-03-12 13:24:04 51°18.383 2°55.091 8.7957 3.420163 30.752025 -2.871232
2007-03-12 13:25:04 51°18.233 2°54.778 8.8695 3.443253 30.933747 -2.871232
2007-03-12 13:26:04 51°18.079 2°54.47 8.8811 3.467898 31.132269 -2.871232
2007-03-12 13:27:04 51°17.888 2°54.221 8.9229 3.475457 31.194325 -2.871232
2007-03-12 13:28:04 51°17.695 2°53.98 9.015 3.501658 31.397898 -2.871232
2007-03-12 13:29:04 51°17.502 2°53.745 9.0933 3.542462 31.72955 -2.871232
2007-03-12 13:30:04 51°17.311 2°53.511 9.1764 3.573741 31.955531 -2.871232
2007-03-12 13:31:04 51°17.114 2°53.304 9.2312 3.60088 32.166737 -2.871232
2007-03-12 13:32:04 51°16.89 2°53.309 9.2444 3.62284 32.342277 -2.871232
2007-03-12 13:33:03 51°16.665 2°53.432 9.2579 3.631852 32.418949 -2.871232
2007-03-12 13:34:04 51°16.432 2°53.541 9.2935 3.634546 32.429475 -2.871232
2007-03-12 13:35:04 51°16.204 2°53.639 9.2792 3.627915 32.316973 -2.871232
2007-03-12 13:36:03 51°15.981 2°53.733 9.3288 3.60554 32.117396 -2.871232
2007-03-12 13:37:04 51°15.75 2°53.831 9.2237 3.595181 31.999726 -2.871232
2007-03-12 13:38:04 51°15.528 2°53.939 9.1725 3.582959 31.955198 -2.871232
2007-03-12 13:39:03 51°15.322 2°54.087 9.1572 3.568769 31.869123 -2.871232
2007-03-12 13:40:04 51°15.117 2°54.228 9.1602 3.563072 31.816802 -2.871232
2007-03-12 13:41:04 51°14.932 2°54.36 9.1736 3.557686 31.765889 -2.871232
2007-03-12 13:42:03 51°14.748 2°54.511 9.2057 3.553957 31.69965 -2.871232
2007-03-12 13:43:04 51°14.581 2°54.719 9.4126 3.550953 31.6274 -2.871232
2007-03-12 13:44:04 51°14.429 2°54.954 9.4579 3.498338 30.927743 -2.871232
2007-03-12 13:45:03 51°14.301 2°55.197 9.4159 3.485392 30.763762 -2.871232
2007-03-12 13:46:04 51°14.193 2°55.358 9.3152 3.111597 27.209119 -2.871232
2007-03-12 13:47:04 51°14.084 2°55.443 9.2527 3.027482 26.466563 -2.871232
2007-03-12 13:48:04 51°13.977 2°55.521 9.2911 2.98631 26.099774 -2.871232
2007-03-12 13:49:04 51°13.865 2°55.602 9.3501 2.931073 25.511001 -2.871232
2007-03-12 13:50:04 51°13.758 2°55.697 9.333 2.965103 25.843206 -2.871232
2007-03-12 13:51:04 51°13.677 2°55.833 9.5264 2.540266 21.726902 -2.871232
2007-03-12 13:52:07 51°13.631 2°55.959 9.5016 2.38641 20.22179 -2.871232
2007-03-12 13:53:07 51°13.608 2°56.045 9.4209 2.42753 20.647925 -2.871232
2007-03-12 13:54:05 51°13.6 2°56.087 9.3694 2.50668 21.40575 -2.871232
2007-03-12 13:55:04 51°13.597 2°56.094 9.339 2.626567 22.572297 -2.871232